Time;durP1;ratioP1;P1;durP2;ratioP2;P2;SDS_P1;SDS_P2;PMS_P1;PMS_P2;Temp;Humidity;BMP_temperature;BMP_pressure;BME280_temperature;BME280_humidity;BME280_pressure;Samples;Min_cycle;Max_cycle;Signal;HPM_P1;HPM_P2
2022/03/26 00:02:12;;;;;;;139.73;70.65;;;8.50;99.90;;;;;;4974268;28;20058;-72
2022/03/26 00:04:38;;;;;;;136.88;68.85;;;8.50;99.90;;;;;;4973275;28;20072;-72
2022/03/26 00:07:04;;;;;;;132.88;70.22;;;8.50;99.90;;;;;;4957383;28;20050;-72
2022/03/26 00:09:30;;;;;;;138.07;68.68;;;8.50;99.90;;;;;;4957303;28;20487;-72
2022/03/26 00:11:56;;;;;;;140.75;70.13;;;8.50;99.90;;;;;;4988861;28;20057;-72
2022/03/26 00:14:21;;;;;;;139.43;72.22;;;8.50;99.90;;;;;;4974406;28;20046;-72
2022/03/26 00:16:47;;;;;;;133.40;70.10;;;8.60;99.90;;;;;;4993772;28;20526;-72
2022/03/26 00:19:14;;;;;;;145.85;71.40;;;8.50;99.90;;;;;;4990754;28;20447;-72
2022/03/26 00:21:41;;;;;;;147.82;71.88;;;8.50;99.90;;;;;;4973354;28;20129;-73
2022/03/26 00:24:07;;;;;;;150.65;71.82;;;8.40;99.90;;;;;;4973532;28;20129;-71
2022/03/26 00:26:33;;;;;;;146.00;72.55;;;7.40;99.90;;;;;;4974895;28;20563;-72
2022/03/26 00:28:59;;;;;;;148.15;72.47;;;9.80;99.90;;;;;;4962395;28;20434;-72
2022/03/26 00:31:25;;;;;;;140.20;71.22;;;8.30;99.90;;;;;;4990198;28;20046;-72
2022/03/26 00:33:53;;;;;;;140.85;70.63;;;8.20;99.90;;;;;;4991158;28;20046;-72
2022/03/26 00:36:20;;;;;;;140.43;70.40;;;8.10;99.90;;;;;;4957555;28;20038;-73
2022/03/26 00:38:46;;;;;;;143.55;71.78;;;8.20;99.90;;;;;;4990494;28;20044;-72
2022/03/26 00:41:12;;;;;;;144.00;70.75;;;8.20;99.90;;;;;;4971209;28;20038;-72
2022/03/26 00:43:38;;;;;;;142.55;69.68;;;8.10;99.90;;;;;;4973818;28;20097;-72
2022/03/26 00:46:04;;;;;;;139.57;69.90;;;8.10;99.90;;;;;;4989998;28;20042;-73
2022/03/26 00:48:30;;;;;;;143.43;69.18;;;8.10;99.90;;;;;;4973412;28;20466;-74
2022/03/26 00:50:56;;;;;;;140.57;70.72;;;8.00;99.90;;;;;;4990545;28;20394;-72
2022/03/26 00:53:21;;;;;;;139.80;69.60;;;8.10;99.90;;;;;;4990264;28;20046;-72
2022/03/26 00:55:47;;;;;;;141.40;71.22;;;8.20;99.90;;;;;;4989613;28;20125;-72
2022/03/26 00:58:13;;;;;;;138.55;71.25;;;8.00;99.90;;;;;;4989949;28;20049;-72
2022/03/26 01:00:38;;;;;;;141.75;70.93;;;8.00;99.90;;;;;;4972009;28;20042;-72
2022/03/26 01:03:08;;;;;;;152.07;73.53;;;8.00;99.90;;;;;;4990418;28;20050;-72
2022/03/26 01:05:34;;;;;;;148.25;71.72;;;7.90;99.90;;;;;;4990239;28;20125;-72
2022/03/26 01:08:00;;;;;;;144.98;71.25;;;7.90;99.90;;;;;;4990209;28;20130;-73
2022/03/26 01:10:27;;;;;;;143.57;71.68;;;7.90;99.90;;;;;;4972079;28;20362;-72
2022/03/26 01:12:53;;;;;;;146.13;72.07;;;7.90;99.90;;;;;;4989966;28;20046;-72
2022/03/26 01:15:19;;;;;;;144.40;71.25;;;7.90;99.90;;;;;;4989425;28;20093;-73
2022/03/26 01:17:45;;;;;;;142.50;71.90;;;7.90;99.90;;;;;;4975189;28;20074;-75
2022/03/26 01:20:11;;;;;;;145.40;72.40;;;8.70;99.90;;;;;;4983140;28;20042;-74
2022/03/26 01:22:37;;;;;;;149.52;73.45;;;7.80;99.90;;;;;;4988918;28;20057;-72
2022/03/26 01:25:04;;;;;;;141.98;70.65;;;7.80;99.90;;;;;;4989226;28;20042;-74
2022/03/26 01:27:30;;;;;;;147.73;72.68;;;7.80;99.90;;;;;;4988792;28;20050;-72
2022/03/26 01:29:56;;;;;;;152.25;72.93;;;7.80;99.90;;;;;;4989680;28;20432;-72
2022/03/26 01:32:22;;;;;;;138.20;68.45;;;7.80;99.90;;;;;;4972985;28;20534;-72
2022/03/26 01:34:47;;;;;;;143.70;70.38;;;8.10;99.90;;;;;;4971311;28;20058;-72
2022/03/26 01:37:14;;;;;;;149.73;71.97;;;7.70;99.90;;;;;;4990512;28;20057;-73
2022/03/26 01:39:40;;;;;;;149.65;74.32;;;7.70;99.90;;;;;;4989224;28;20486;-73
2022/03/26 01:42:07;;;;;;;153.07;73.97;;;7.70;99.90;;;;;;4988194;28;20043;-73
2022/03/26 01:44:34;;;;;;;149.80;72.32;;;7.70;99.90;;;;;;4956178;28;20042;-72
2022/03/26 01:47:00;;;;;;;143.55;70.63;;;7.60;99.90;;;;;;4989441;28;20046;-72
2022/03/26 01:49:26;;;;;;;154.55;71.78;;;7.60;99.90;;;;;;4982011;28;20104;-73
2022/03/26 01:51:52;;;;;;;151.02;70.45;;;7.60;99.90;;;;;;4988994;28;20057;-73
2022/03/26 01:54:19;;;;;;;149.98;72.60;;;7.60;99.90;;;;;;4985469;28;20456;-73
2022/03/26 01:56:45;;;;;;;153.85;73.70;;;7.60;99.90;;;;;;4985925;28;20038;-72
2022/03/26 01:59:12;;;;;;;154.07;72.50;;;7.60;99.90;;;;;;4988892;28;20487;-72
2022/03/26 02:01:38;;;;;;;152.20;71.82;;;7.50;99.90;;;;;;4971499;28;20700;-72
2022/03/26 02:04:05;;;;;;;161.65;75.07;;;7.50;99.90;;;;;;4988816;28;20137;-72
2022/03/26 02:06:37;;;;;;;157.25;74.22;;;7.50;99.90;;;;;;4989197;28;20103;-72
2022/03/26 02:09:04;;;;;;;157.95;74.50;;;7.40;99.90;;;;;;4971437;28;20066;-72
2022/03/26 02:11:36;;;;;;;152.82;75.85;;;7.40;99.90;;;;;;4988425;28;20050;-72
2022/03/26 02:14:03;;;;;;;145.52;73.22;;;7.40;99.90;;;;;;4989616;28;20244;-73
2022/03/26 02:16:30;;;;;;;146.65;69.40;;;7.40;99.90;;;;;;4971550;28;20100;-72
2022/03/26 02:18:56;;;;;;;148.18;72.75;;;7.40;99.90;;;;;;4990398;28;20380;-72
2022/03/26 02:21:22;;;;;;;148.75;72.93;;;7.30;99.90;;;;;;4970962;28;20475;-72
2022/03/26 02:23:49;;;;;;;150.70;72.90;;;7.80;99.90;;;;;;4987854;28;20428;-73
2022/03/26 02:26:17;;;;;;;154.55;73.35;;;8.60;99.90;;;;;;4986821;28;20108;-73
2022/03/26 02:28:44;;;;;;;150.50;71.72;;;8.80;99.90;;;;;;4962507;28;20092;-73
2022/03/26 02:31:11;;;;;;;158.40;74.07;;;8.20;99.90;;;;;;4987599;28;20050;-73
2022/03/26 02:33:37;;;;;;;148.27;72.60;;;7.20;99.90;;;;;;4971742;28;20137;-72
2022/03/26 02:36:03;;;;;;;160.88;75.47;;;7.20;99.90;;;;;;4988704;28;20389;-72
2022/03/26 02:38:29;;;;;;;159.75;77.28;;;7.20;99.90;;;;;;4988432;28;20078;-73
2022/03/26 02:40:54;;;;;;;163.05;76.60;;;7.20;99.90;;;;;;4987990;28;20085;-73
2022/03/26 02:43:20;;;;;;;157.02;75.65;;;7.10;99.90;;;;;;4988666;28;20415;-73
2022/03/26 02:45:46;;;;;;;163.90;77.45;;;7.00;99.90;;;;;;4970196;28;20050;-73
2022/03/26 02:48:13;;;;;;;164.50;76.50;;;6.90;99.90;;;;;;4971202;28;20069;-73
2022/03/26 02:50:39;;;;;;;164.35;76.97;;;6.90;99.90;;;;;;4988491;28;20420;-73
2022/03/26 02:53:05;;;;;;;166.77;79.00;;;6.90;99.90;;;;;;4988395;28;20116;-73
2022/03/26 02:55:31;;;;;;;173.07;79.30;;;6.90;99.90;;;;;;4970126;28;20046;-73
2022/03/26 02:57:57;;;;;;;171.00;79.25;;;6.90;99.90;;;;;;4988216;28;20050;-73
2022/03/26 03:00:23;;;;;;;163.25;77.35;;;6.90;99.90;;;;;;4970133;28;20038;-73
2022/03/26 03:02:48;;;;;;;166.23;76.57;;;8.20;99.90;;;;;;4954772;28;20148;-73
2022/03/26 03:05:14;;;;;;;159.18;77.47;;;6.80;99.90;;;;;;4955255;28;20057;-73
2022/03/26 03:07:40;;;;;;;165.38;79.88;;;7.90;99.90;;;;;;4988004;28;20111;-73
2022/03/26 03:10:07;;;;;;;162.32;75.55;;;6.70;99.90;;;;;;4988412;28;20526;-74
2022/03/26 03:12:33;;;;;;;174.35;78.22;;;;;;;;;;4971339;28;20117;-73
2022/03/26 03:14:59;;;;;;;171.27;80.40;;;6.70;99.90;;;;;;4987767;28;20082;-72
2022/03/26 03:17:25;;;;;;;172.00;79.28;;;6.60;99.90;;;;;;4975175;28;20066;-72
2022/03/26 03:19:50;;;;;;;176.88;77.65;;;6.70;99.90;;;;;;4984943;28;20042;-73
2022/03/26 03:22:16;;;;;;;178.65;80.43;;;6.60;99.90;;;;;;4987767;28;20058;-73
2022/03/26 03:24:42;;;;;;;172.63;78.53;;;6.60;99.90;;;;;;4986735;28;20541;-73
2022/03/26 03:27:08;;;;;;;175.30;79.63;;;6.60;99.90;;;;;;4969647;28;20047;-72
2022/03/26 03:29:34;;;;;;;175.00;80.07;;;6.70;99.90;;;;;;4987919;28;20050;-72
2022/03/26 03:32:00;;;;;;;170.38;79.60;;;6.70;99.90;;;;;;4988545;28;20105;-73
2022/03/26 03:34:26;;;;;;;183.15;80.05;;;6.60;99.90;;;;;;4993718;28;20145;-73
2022/03/26 03:36:51;;;;;;;184.60;78.78;;;6.60;99.90;;;;;;4991601;28;20530;-73
2022/03/26 03:39:17;;;;;;;182.73;81.70;;;6.50;99.90;;;;;;4992636;28;20054;-73
2022/03/26 03:41:43;;;;;;;189.82;82.28;;;6.50;99.90;;;;;;4989294;28;20038;-73
2022/03/26 03:44:10;;;;;;;190.93;82.13;;;6.40;99.90;;;;;;4975032;28;20046;-73
2022/03/26 03:46:36;;;;;;;178.88;81.32;;;7.20;99.90;;;;;;4991758;28;20085;-72
2022/03/26 03:49:03;;;;;;;185.70;80.15;;;6.30;99.90;;;;;;4956492;28;20046;-72
2022/03/26 03:51:29;;;;;;;180.98;77.97;;;6.30;99.90;;;;;;4974282;28;20034;-72
2022/03/26 03:53:54;;;;;;;199.95;83.57;;;6.20;99.90;;;;;;4991508;28;20097;-73
2022/03/26 03:56:20;;;;;;;177.70;78.47;;;6.20;99.90;;;;;;4972623;28;20035;-73
2022/03/26 03:58:46;;;;;;;183.82;80.20;;;6.20;99.90;;;;;;4974628;28;20054;-73
2022/03/26 04:01:12;;;;;;;196.77;83.32;;;6.80;99.90;;;;;;4973388;28;20062;-73
2022/03/26 04:03:38;;;;;;;183.35;82.15;;;6.10;99.90;;;;;;4974256;28;20574;-73
2022/03/26 04:06:05;;;;;;;180.25;79.53;;;6.10;99.90;;;;;;4973532;28;20046;-73
2022/03/26 04:08:32;;;;;;;191.32;81.57;;;5.80;99.90;;;;;;4974085;28;20041;-73
2022/03/26 04:10:58;;;;;;;195.10;82.55;;;6.10;99.90;;;;;;4991217;28;20090;-73
2022/03/26 04:13:24;;;;;;;194.57;83.00;;;6.20;99.90;;;;;;4993549;28;20078;-73
2022/03/26 04:15:50;;;;;;;186.73;81.75;;;5.10;99.90;;;;;;4975996;28;20109;-73
2022/03/26 04:18:16;;;;;;;180.57;82.10;;;7.80;99.90;;;;;;4991408;28;20047;-72
2022/03/26 04:20:42;;;;;;;196.48;84.53;;;6.20;99.90;;;;;;4991420;28;20368;-73
2022/03/26 04:23:08;;;;;;;182.70;82.25;;;6.10;99.90;;;;;;4991493;28;20070;-73
2022/03/26 04:25:34;;;;;;;186.18;82.90;;;6.10;99.90;;;;;;4972837;28;20046;-72
2022/03/26 04:28:00;;;;;;;186.82;80.47;;;6.10;99.90;;;;;;4990949;28;20049;-73
2022/03/26 04:30:26;;;;;;;181.32;82.03;;;6.00;99.90;;;;;;4990351;28;20058;-73
2022/03/26 04:32:52;;;;;;;182.25;78.10;;;6.00;99.90;;;;;;4991532;28;20399;-73
2022/03/26 04:35:18;;;;;;;169.95;77.30;;;6.00;99.90;;;;;;4991034;28;20042;-73
2022/03/26 04:37:44;;;;;;;186.73;80.53;;;6.00;99.90;;;;;;4973006;28;20046;-73
2022/03/26 04:40:11;;;;;;;182.57;80.35;;;6.10;99.90;;;;;;4990260;28;20546;-73
2022/03/26 04:42:38;;;;;;;188.30;82.70;;;6.10;99.90;;;;;;4971995;28;20046;-73
2022/03/26 04:45:05;;;;;;;183.25;80.00;;;6.10;99.90;;;;;;4971088;28;20054;-72
2022/03/26 04:47:30;;;;;;;187.70;79.45;;;6.00;99.90;;;;;;4990671;28;20057;-72
2022/03/26 04:49:56;;;;;;;175.40;75.85;;;5.90;99.90;;;;;;4990857;28;20050;-73
2022/03/26 04:52:22;;;;;;;180.73;78.68;;;5.90;99.90;;;;;;4990689;28;20046;-73
2022/03/26 04:54:48;;;;;;;181.63;79.40;;;5.80;99.90;;;;;;4989552;28;20043;-73
2022/03/26 04:57:15;;;;;;;180.30;78.13;;;5.80;99.90;;;;;;4990690;28;20046;-73
2022/03/26 04:59:41;;;;;;;169.07;76.03;;;5.80;99.90;;;;;;4989775;28;20057;-73
2022/03/26 05:02:07;;;;;;;190.02;79.72;;;5.70;99.90;;;;;;4990444;28;20038;-72
2022/03/26 05:04:32;;;;;;;178.25;78.45;;;7.00;99.90;;;;;;4990304;28;20501;-73
2022/03/26 05:06:58;;;;;;;175.40;77.07;;;5.80;99.90;;;;;;4972505;28;20043;-73
2022/03/26 05:09:24;;;;;;;175.10;78.18;;;6.60;99.90;;;;;;4990367;28;20046;-73
2022/03/26 05:11:49;;;;;;;175.38;76.25;;;5.90;99.90;;;;;;4988661;28;20038;-73
2022/03/26 05:14:16;;;;;;;175.73;77.00;;;5.90;99.90;;;;;;4973544;28;20050;-74
2022/03/26 05:16:42;;;;;;;177.68;77.82;;;5.90;99.90;;;;;;4991944;28;20482;-73
2022/03/26 05:19:08;;;;;;;179.95;79.00;;;5.80;99.90;;;;;;4990445;28;20074;-73
2022/03/26 05:21:33;;;;;;;174.98;76.32;;;5.80;99.90;;;;;;4989689;28;20042;-72
2022/03/26 05:23:59;;;;;;;170.32;77.85;;;5.80;99.90;;;;;;4990103;28;20050;-72
2022/03/26 05:26:25;;;;;;;174.43;78.25;;;5.70;99.90;;;;;;4971890;28;20177;-73
2022/03/26 05:28:51;;;;;;;164.55;76.47;;;5.70;99.90;;;;;;4972230;28;20491;-73
2022/03/26 05:31:17;;;;;;;184.00;80.70;;;5.80;99.90;;;;;;4989293;28;20471;-73
2022/03/26 05:33:42;;;;;;;177.00;81.18;;;5.70;99.90;;;;;;4972946;28;20050;-73
2022/03/26 05:36:08;;;;;;;176.60;76.07;;;5.70;99.90;;;;;;4971626;28;20064;-73
2022/03/26 05:38:34;;;;;;;174.10;78.43;;;5.80;99.90;;;;;;4990508;28;20134;-73
2022/03/26 05:41:00;;;;;;;178.68;78.75;;;5.70;99.90;;;;;;4970645;28;20050;-73
2022/03/26 05:43:25;;;;;;;175.27;75.13;;;5.70;99.90;;;;;;4972150;28;20038;-73
2022/03/26 05:45:51;;;;;;;176.02;77.50;;;5.70;99.90;;;;;;4989418;28;20065;-73
2022/03/26 05:48:17;;;;;;;167.52;77.47;;;5.70;99.90;;;;;;4952764;28;20042;-72
2022/03/26 05:50:44;;;;;;;171.30;75.43;;;5.70;99.90;;;;;;4984410;28;20074;-72
2022/03/26 05:53:11;;;;;;;171.48;76.15;;;5.80;99.90;;;;;;4972577;28;20143;-72
2022/03/26 05:55:36;;;;;;;169.18;74.63;;;5.80;99.90;;;;;;4969911;28;20046;-72
2022/03/26 05:58:03;;;;;;;170.40;73.75;;;6.20;99.90;;;;;;4970567;28;20403;-72
2022/03/26 06:00:28;;;;;;;169.05;75.95;;;6.70;99.90;;;;;;4989311;28;20099;-72
2022/03/26 06:02:54;;;;;;;161.32;72.70;;;5.90;99.90;;;;;;4988757;28;20399;-72
2022/03/26 06:05:20;;;;;;;171.57;76.05;;;5.90;99.90;;;;;;4988884;28;20038;-73
2022/03/26 06:07:45;;;;;;;163.73;73.47;;;5.90;99.90;;;;;;4972476;28;20046;-73
2022/03/26 06:10:11;;;;;;;156.05;73.47;;;6.00;99.90;;;;;;4970610;28;20042;-74
2022/03/26 06:12:37;;;;;;;152.05;71.80;;;6.00;99.90;;;;;;4987586;28;20097;-73
2022/03/26 06:15:03;;;;;;;146.85;69.13;;;6.10;99.90;;;;;;4989094;28;20049;-73
2022/03/26 06:17:30;;;;;;;150.60;72.07;;;6.10;99.90;;;;;;4970367;28;20085;-73
2022/03/26 06:19:55;;;;;;;158.93;71.75;;;6.20;99.90;;;;;;4988889;28;20061;-73
2022/03/26 06:22:21;;;;;;;150.07;71.65;;;6.30;99.90;;;;;;4972044;28;20038;-73
2022/03/26 06:24:48;;;;;;;147.75;70.78;;;6.30;99.90;;;;;;4986407;28;20355;-73
2022/03/26 06:27:15;;;;;;;160.27;73.95;;;6.30;99.90;;;;;;4989196;28;20145;-73
2022/03/26 06:29:41;;;;;;;147.25;69.90;;;6.40;99.90;;;;;;4989305;28;20499;-73
2022/03/26 06:32:07;;;;;;;158.35;71.25;;;6.40;99.90;;;;;;4989066;28;20097;-73
2022/03/26 06:34:33;;;;;;;141.35;68.93;;;6.50;99.90;;;;;;4971721;28;20073;-73
2022/03/26 06:36:59;;;;;;;145.77;69.28;;;6.50;99.90;;;;;;4988080;28;20061;-73
2022/03/26 06:39:25;;;;;;;141.82;69.15;;;5.90;99.90;;;;;;4972078;28;20081;-73
2022/03/26 06:41:50;;;;;;;136.02;66.35;;;6.70;99.90;;;;;;4988835;28;20058;-73
2022/03/26 06:44:16;;;;;;;130.77;65.15;;;6.90;99.90;;;;;;4970709;28;20046;-73
2022/03/26 06:46:41;;;;;;;131.55;63.78;;;7.00;99.90;;;;;;4970673;28;20075;-73
2022/03/26 06:49:08;;;;;;;139.95;65.93;;;7.20;99.90;;;;;;4971138;28;20502;-73
2022/03/26 06:51:35;;;;;;;134.75;65.70;;;7.30;99.90;;;;;;4987997;28;20439;-73
2022/03/26 06:54:00;;;;;;;138.30;65.13;;;7.40;99.90;;;;;;4988386;28;20101;-73
2022/03/26 06:56:26;;;;;;;137.15;65.47;;;7.60;99.90;;;;;;4988026;28;20046;-74
2022/03/26 06:58:52;;;;;;;135.05;64.43;;;7.70;99.90;;;;;;4989108;28;20048;-73
2022/03/26 07:01:18;;;;;;;129.52;63.85;;;7.90;99.90;;;;;;4989899;28;20483;-72
2022/03/26 07:03:43;;;;;;;130.60;65.03;;;8.40;99.90;;;;;;4971732;28;20047;-72
2022/03/26 07:06:09;;;;;;;126.50;62.50;;;9.20;99.90;;;;;;4986727;28;20478;-73
2022/03/26 07:08:35;;;;;;;115.35;59.58;;;12.40;99.90;;;;;;4992701;28;20521;-73
2022/03/26 07:11:02;;;;;;;108.43;56.80;;;13.60;99.90;;;;;;4994568;28;20046;-73
2022/03/26 07:13:28;;;;;;;104.55;53.58;;;15.10;99.90;;;;;;4994149;28;20554;-74
2022/03/26 07:15:53;;;;;;;97.47;51.38;;;16.60;99.90;;;;;;4977553;28;20312;-74
2022/03/26 07:18:19;;;;;;;99.57;55.00;;;17.80;99.90;;;;;;4977463;28;20046;-74
2022/03/26 07:20:45;;;;;;;94.25;51.20;;;19.50;99.90;;;;;;4993380;28;20101;-74
2022/03/26 07:23:11;;;;;;;88.15;50.55;;;19.60;99.90;;;;;;4997682;28;20499;-74
2022/03/26 07:25:36;;;;;;;88.90;51.80;;;20.30;99.90;;;;;;4994124;28;20050;-74
2022/03/26 07:28:03;;;;;;;90.03;52.25;;;21.00;99.90;;;;;;4982319;28;20133;-74
2022/03/26 07:30:29;;;;;;;84.95;50.97;;;21.60;98.70;;;;;;4957501;28;20122;-75
2022/03/26 07:32:55;;;;;;;88.95;50.15;;;22.40;97.20;;;;;;4942317;28;20110;-75
2022/03/26 07:35:22;;;;;;;82.28;49.33;;;23.50;96.50;;;;;;4992109;28;20483;-75
2022/03/26 07:37:48;;;;;;;78.85;47.80;;;21.90;95.20;;;;;;4994825;28;20411;-74
2022/03/26 07:40:14;;;;;;;81.43;49.45;;;20.00;96.60;;;;;;4994010;28;20039;-74
2022/03/26 07:42:40;;;;;;;79.22;48.25;;;18.40;99.20;;;;;;4976489;28;20073;-74
2022/03/26 07:45:07;;;;;;;84.38;48.90;;;17.20;99.90;;;;;;4994765;28;20612;-73
2022/03/26 07:47:37;;;;;;;86.40;49.85;;;16.40;99.90;;;;;;4961662;28;20046;-74
2022/03/26 07:50:04;;;;;;;79.45;48.85;;;15.30;99.90;;;;;;4977744;28;20053;-74
2022/03/26 07:52:30;;;;;;;85.90;49.58;;;14.70;99.90;;;;;;4977122;28;20498;-74
2022/03/26 07:54:56;;;;;;;81.78;47.97;;;14.20;99.90;;;;;;4959516;28;20499;-74
2022/03/26 07:57:21;;;;;;;79.25;47.17;;;13.80;99.90;;;;;;4994657;28;20039;-73
2022/03/26 07:59:47;;;;;;;79.22;47.25;;;13.60;99.90;;;;;;4976741;28;20050;-73
2022/03/26 08:02:12;;;;;;;73.90;46.50;;;13.40;99.90;;;;;;4993938;28;20471;-73
2022/03/26 08:04:38;;;;;;;71.55;43.88;;;13.30;99.90;;;;;;4994576;28;20050;-73
2022/03/26 08:07:05;;;;;;;72.32;44.00;;;13.20;99.90;;;;;;4994877;28;20034;-72
2022/03/26 08:09:30;;;;;;;79.75;46.33;;;13.10;99.90;;;;;;4994059;28;20049;-73
2022/03/26 08:11:56;;;;;;;80.00;44.95;;;13.20;99.90;;;;;;4992945;28;20487;-73
2022/03/26 08:14:21;;;;;;;74.20;44.22;;;13.50;99.90;;;;;;4961008;28;20104;-72
2022/03/26 08:16:47;;;;;;;72.07;42.45;;;13.10;99.90;;;;;;4993252;28;20075;-73
2022/03/26 08:19:13;;;;;;;71.50;41.92;;;13.20;99.90;;;;;;4976078;28;20060;-72
2022/03/26 08:21:38;;;;;;;70.70;43.08;;;13.20;99.90;;;;;;4990466;28;20068;-73
2022/03/26 08:24:05;;;;;;;72.13;42.33;;;13.30;99.90;;;;;;4977732;28;20050;-73
2022/03/26 08:26:30;;;;;;;71.72;40.20;;;13.30;99.90;;;;;;4955820;28;20479;-73
2022/03/26 08:29:00;;;;;;;73.53;43.45;;;14.60;99.90;;;;;;4992345;28;20047;-72
2022/03/26 08:31:28;;;;;;;71.88;41.97;;;13.60;99.90;;;;;;4992716;28;20511;-72
2022/03/26 08:33:54;;;;;;;62.22;38.95;;;13.70;99.90;;;;;;4991266;28;20351;-73
2022/03/26 08:36:20;;;;;;;63.58;38.42;;;13.90;99.90;;;;;;4991470;28;20057;-73
2022/03/26 08:38:47;;;;;;;66.57;40.83;;;14.10;99.90;;;;;;4973172;28;20046;-72
2022/03/26 08:41:14;;;;;;;67.00;39.63;;;14.20;99.90;;;;;;4971519;28;20125;-74
2022/03/26 08:43:40;;;;;;;67.65;40.13;;;14.40;99.90;;;;;;4990160;28;20051;-72
2022/03/26 08:46:05;;;;;;;63.78;40.95;;;15.30;99.90;;;;;;4990466;28;20054;-72
2022/03/26 08:48:31;;;;;;;63.38;38.95;;;15.70;99.90;;;;;;4985887;28;20496;-72
2022/03/26 08:50:57;;;;;;;68.78;40.40;;;14.90;99.90;;;;;;4952973;28;20484;-73
2022/03/26 08:53:23;;;;;;;65.57;38.92;;;15.10;99.90;;;;;;4984846;28;20053;-72
2022/03/26 08:55:50;;;;;;;60.60;37.58;;;16.20;99.90;;;;;;4990152;28;20498;-71
2022/03/26 08:58:17;;;;;;;57.60;37.05;;;16.10;99.90;;;;;;4989371;28;20117;-71
2022/03/26 09:00:44;;;;;;;63.90;39.65;;;18.70;99.90;;;;;;4956511;28;20137;-72
2022/03/26 09:03:09;;;;;;;57.13;35.85;;;21.10;99.90;;;;;;4972975;28;20053;-72
2022/03/26 09:05:35;;;;;;;52.40;33.17;;;23.30;98.10;;;;;;4989431;28;20046;-72
2022/03/26 09:08:00;;;;;;;46.28;30.75;;;25.20;94.30;;;;;;4990056;28;20522;-72
2022/03/26 09:10:26;;;;;;;48.60;32.97;;;27.20;93.10;;;;;;4975608;28;20122;-73
2022/03/26 09:12:52;;;;;;;46.00;31.58;;;28.50;90.10;;;;;;4988123;28;20049;-72
2022/03/26 09:15:17;;;;;;;43.50;31.58;;;29.80;83.30;;;;;;4972535;28;20569;-75
2022/03/26 09:17:43;;;;;;;38.40;27.98;;;31.00;76.70;;;;;;4989254;28;20041;-77
2022/03/26 09:20:10;;;;;;;40.05;27.52;;;31.90;66.60;;;;;;4988525;28;20096;-78
2022/03/26 09:22:36;;;;;;;33.13;25.10;;;32.70;65.30;;;;;;4970952;28;20066;-77
2022/03/26 09:25:04;;;;;;;32.17;24.02;;;33.10;59.40;;;;;;4990566;28;20061;-76
2022/03/26 09:27:29;;;;;;;31.45;22.70;;;33.70;58.90;;;;;;4988290;28;20335;-75
2022/03/26 09:29:55;;;;;;;28.10;21.17;;;34.10;54.80;;;;;;4990174;28;20044;-75
2022/03/26 09:32:22;;;;;;;30.00;23.23;;;34.30;53.50;;;;;;4989804;28;20264;-74
2022/03/26 09:34:49;;;;;;;28.70;21.83;;;34.30;53.40;;;;;;4988761;28;20097;-74
2022/03/26 09:37:15;;;;;;;26.95;20.92;;;34.60;52.80;;;;;;4990479;28;20065;-75
2022/03/26 09:39:41;;;;;;;22.75;17.05;;;35.40;53.10;;;;;;4988543;28;20125;-74
2022/03/26 09:42:11;;;;;;;19.77;14.50;;;35.90;49.10;;;;;;4969732;28;20519;-69
2022/03/26 09:44:37;;;;;;;16.05;13.70;;;36.10;48.00;;;;;;4988402;28;20058;-70
2022/03/26 09:47:07;;;;;;;21.00;15.23;;;36.20;46.20;;;;;;4989313;28;20046;-70
2022/03/26 09:49:33;;;;;;;19.67;14.98;;;36.20;46.50;;;;;;4988866;28;20046;-72
2022/03/26 09:51:59;;;;;;;20.02;15.35;;;35.90;47.10;;;;;;4989624;28;20441;-70
2022/03/26 09:54:26;;;;;;;19.02;14.43;;;36.30;45.50;;;;;;4989258;28;20097;-70
2022/03/26 09:56:52;;;;;;;22.02;15.13;;;36.60;45.10;;;;;;4988512;28;20135;-74
2022/03/26 09:59:21;;;;;;;18.10;14.32;;;36.60;45.90;;;;;;4990123;28;20518;-73
2022/03/26 10:01:47;;;;;;;15.07;12.48;;;37.00;44.90;;;;;;4987072;28;20058;-74
2022/03/26 10:04:14;;;;;;;16.08;12.30;;;37.30;44.30;;;;;;4989091;28;20046;-73
2022/03/26 10:07:00;;;;;;;13.60;10.77;;;37.70;43.50;;;;;;4986394;28;20045;-74
2022/03/26 10:09:34;;;;;;;14.65;11.27;;;38.00;43.10;;;;;;4957154;28;20049;-73
2022/03/26 10:12:21;;;;;;;15.13;12.45;;;38.20;42.50;;;;;;4988598;28;20125;-73
2022/03/26 10:14:53;;;;;;;15.02;9.95;;;38.70;42.60;;;;;;4988664;28;20054;-74
2022/03/26 10:17:23;;;;;;;11.70;8.20;;;38.90;41.60;;;;;;4979192;28;20042;-74
2022/03/26 10:20:03;;;;;;;12.23;8.30;;;39.00;40.80;;;;;;4971244;28;20058;-73
2022/03/26 10:22:37;;;;;;;12.68;8.80;;;39.10;40.80;;;;;;4968781;28;20055;-74
2022/03/26 10:25:14;;;;;;;13.88;8.23;;;39.40;40.40;;;;;;4935740;28;20059;-73
2022/03/26 10:27:42;;;;;;;13.85;9.00;;;39.40;39.70;;;;;;4969699;28;20046;-74
2022/03/26 10:30:12;;;;;;;11.38;8.55;;;39.30;39.10;;;;;;4969789;28;20057;-74
2022/03/26 10:32:43;;;;;;;13.60;9.75;;;39.20;39.40;;;;;;4988803;28;20042;-73
2022/03/26 10:35:08;;;;;;;12.50;10.00;;;39.10;39.50;;;;;;4971150;28;20105;-73
2022/03/26 10:37:58;;;;;;;13.07;10.57;;;38.80;39.20;;;;;;4989472;28;20471;-73
2022/03/26 10:40:42;;;;;;;14.18;10.27;;;39.30;39.90;;;;;;4955254;28;20058;-73
2022/03/26 10:43:13;;;;;;;12.63;8.88;;;39.40;39.30;;;;;;4986973;28;20125;-73
2022/03/26 10:45:50;;;;;;;12.45;9.15;;;39.40;39.10;;;;;;4988607;28;20046;-73
2022/03/26 10:48:22;;;;;;;10.73;7.10;;;39.90;39.10;;;;;;4986690;28;20051;-73
2022/03/26 10:50:53;;;;;;;7.50;5.30;;;40.20;38.30;;;;;;4967429;28;20538;-73
2022/03/26 10:53:19;;;;;;;8.13;5.20;;;40.30;37.90;;;;;;4969732;28;20047;-73
2022/03/26 10:55:46;;;;;;;8.60;5.07;;;40.10;37.60;;;;;;4950730;28;20435;-74
2022/03/26 10:58:12;;;;;;;6.55;4.78;;;40.10;37.90;;;;;;4950789;28;20465;-73
2022/03/26 11:00:38;;;;;;;6.30;4.90;;;39.70;37.50;;;;;;4967282;28;20090;-73
2022/03/26 11:03:04;;;;;;;8.70;5.80;;;39.60;37.40;;;;;;4951465;28;20078;-74
2022/03/26 11:05:30;;;;;;;7.85;5.40;;;39.40;37.70;;;;;;4970774;28;20054;-74
2022/03/26 11:07:58;;;;;;;9.23;5.40;;;39.50;38.00;;;;;;4955176;28;20051;-75
2022/03/26 11:10:25;;;;;;;7.65;5.05;;;40.10;37.80;;;;;;4953000;28;20102;-72
2022/03/26 11:12:51;;;;;;;7.85;5.00;;;40.40;37.90;;;;;;4951471;28;20134;-72
2022/03/26 11:15:28;;;;;;;7.05;4.65;;;40.80;37.50;;;;;;4969474;28;20101;-71
2022/03/26 11:18:15;;;;;;;6.72;4.10;;;41.40;37.30;;;;;;4968587;28;20053;-71
2022/03/26 11:21:09;;;;;;;5.55;3.78;;;41.50;36.80;;;;;;4968894;28;20113;-72
2022/03/26 11:23:58;;;;;;;5.93;4.00;;;41.80;36.70;;;;;;4969341;28;20061;-72
2022/03/26 11:27:00;;;;;;;5.47;3.70;;;41.70;36.50;;;;;;4965388;28;20043;-72
2022/03/26 11:29:44;;;;;;;4.95;3.38;;;41.10;36.60;;;;;;4952561;28;20046;-72
2022/03/26 11:32:34;;;;;;;5.60;3.53;;;40.50;36.70;;;;;;4969569;28;20047;-73
2022/03/26 11:35:08;;;;;;;5.88;3.40;;;39.60;36.90;;;;;;4950755;28;20067;-73
2022/03/26 11:37:34;;;;;;;4.87;3.30;;;39.10;37.30;;;;;;4936076;28;20088;-73
2022/03/26 11:40:03;;;;;;;4.95;3.10;;;38.80;37.70;;;;;;4967718;28;20051;-73
2022/03/26 11:42:35;;;;;;;6.57;3.05;;;39.20;37.50;;;;;;4953266;28;20046;-73
2022/03/26 11:50:48;;;;;;;4.80;3.25;;;39.40;37.00;;;;;;4968242;28;20091;-73
2022/03/26 11:53:37;;;;;;;4.20;2.85;;;39.00;37.30;;;;;;4968918;28;20113;-73
2022/03/26 11:56:04;;;;;;;4.55;3.13;;;39.20;36.80;;;;;;4953227;28;20139;-73
2022/03/26 11:58:30;;;;;;;5.47;3.20;;;39.30;36.70;;;;;;4954416;28;20492;-73
2022/03/26 12:01:01;;;;;;;5.07;3.00;;;38.80;37.20;;;;;;4971446;28;20053;-72
2022/03/26 12:03:29;;;;;;;5.65;3.47;;;38.10;37.10;;;;;;4972760;28;20453;-72
2022/03/26 12:08:54;;;;;;;5.90;3.60;;;35.10;38.50;;;;;;4973557;28;20047;-72
2022/03/26 12:11:31;;;;;;;7.65;4.30;;;34.20;40.30;;;;;;4956274;28;20043;-72
2022/03/26 12:14:07;;;;;;;6.65;3.88;;;34.20;41.00;;;;;;4941003;28;20047;-72
2022/03/26 12:16:55;;;;;;;7.70;3.97;;;34.00;41.20;;;;;;4971456;28;20057;-74
2022/03/26 12:19:45;;;;;;;5.35;3.47;;;34.10;41.00;;;;;;4972250;28;20089;-74
2022/03/26 12:22:28;;;;;;;6.55;3.53;;;33.80;41.30;;;;;;4954307;28;20375;-72
2022/03/26 12:25:00;;;;;;;6.95;3.78;;;33.00;41.90;;;;;;4955526;28;20479;-72
2022/03/26 12:27:27;;;;;;;7.38;4.28;;;32.10;42.40;;;;;;4973592;28;20053;-72
2022/03/26 12:29:55;;;;;;;6.55;3.92;;;30.80;43.20;;;;;;4953071;28;20042;-74
2022/03/26 12:32:21;;;;;;;6.88;3.72;;;29.90;44.50;;;;;;4972012;28;20121;-74
2022/03/26 12:35:09;;;;;;;6.65;3.97;;;28.70;45.50;;;;;;4970818;28;20066;-73
2022/03/26 12:37:36;;;;;;;6.38;3.80;;;28.00;46.70;;;;;;4970402;28;20050;-73
2022/03/26 12:40:07;;;;;;;8.95;4.03;;;27.80;47.50;;;;;;4937886;28;20388;-73
2022/03/26 12:42:34;;;;;;;9.02;4.60;;;27.20;47.90;;;;;;4970620;28;20054;-73